Portada
METAR-TAF:

METAR-TAF

Aeroports :

Tasiujaq, Quebec, Canadà

latitud: 58-40N, longitud: 069-57W, altitud: 31 m

Observació

L'informe es va fer fa 11 hores i 38 minuts, a les 21:00 UTC
Vent 4 kt del Oest/Nord-Oest
Temperatura -3°C
Humitat 74%
Pressió 1009 hPa
Visibilitat: 19.3 km
Cel ennuvolat a una alçada de 1400 ft
Cel cobert a una alçada de 3000 ft

METAR: CYTQ 272100Z 29004KT 12SM BKN014 OVC030 M03/M07 A2981 RMK SC7SC1 LAST STFD OBS NEXT/281200 UTC SLP101

Hora: 04:38 (08:38 UTC)

Pronòstic

L'informe es va fer fa 19 hores i 0 minuts, a les 13:38 UTC
Pronòstic vàlid del 27 a les 14 UTC al 27 a les 21 UTC
Vent 10 kt del Sud/Sud-Oest amb ràfegues de 20 kt
Visibilitat: 10 km
Cel ennuvolat a una alçada de 2500 ft
Temporalment
l' 27 a les 14 UTC al 27 a les 21 UTC
Visibilitat: 8.0 km
Cel ennuvolat a una alçada de 1500 ft
neu

TAF: CYTQ 271338Z 2714/2721 20010G20KT P6SM BKN025 TEMPO 2714/2721 5SM -SN BKN015 RMK NXT FCST WILL BE ISSUED AT 281345Z

Observacions i pronòstics meteorològics de més de 4000 aeroports (METAR i TAF).

Les estacions disponibles són els punts grocs i vermells al mapa.

Posi el ratolí al punt desitjat per veure el nom de l'estació.

Feu clic per veure les observacions i els pronòstics meteorològics.

Per canviar el mapa: feu clic els botons verds amb una creu de color negre per apropar; al botó verd amb un guió per allunyar la imatge; o en les fletxes verdes per a mapes adjacents.


METAR-TAF: